createdAt,value
2022-11-14T00:00:01.314Z,91.66
2022-11-14T00:02:27.958Z,91.74
2022-11-14T00:04:54.421Z,91.92
2022-11-14T00:07:20.932Z,92.84
2022-11-14T00:09:47.333Z,92.80
2022-11-14T00:12:13.760Z,92.56
2022-11-14T00:14:40.204Z,91.84
2022-11-14T00:17:06.679Z,91.38
2022-11-14T00:19:33.096Z,91.22
2022-11-14T00:21:59.534Z,92.35
2022-11-14T00:24:25.946Z,92.56
2022-11-14T00:26:52.343Z,92.78
2022-11-14T00:29:18.787Z,92.19
2022-11-14T00:31:45.187Z,91.77
2022-11-14T00:34:11.600Z,92.70
2022-11-14T00:36:38.006Z,92.66
2022-11-14T00:39:04.580Z,91.92
2022-11-14T00:41:31.100Z,92.09
2022-11-14T00:43:57.510Z,91.66
2022-11-14T00:46:23.922Z,92.39
2022-11-14T00:48:50.296Z,92.27
2022-11-14T00:51:16.720Z,91.20
2022-11-14T00:53:43.114Z,92.07
2022-11-14T00:56:09.543Z,91.80
2022-11-14T00:58:35.932Z,91.54
2022-11-14T01:01:02.457Z,91.64
2022-11-14T01:03:28.878Z,91.94
2022-11-14T01:05:55.310Z,92.18
2022-11-14T01:08:22.047Z,92.42
2022-11-14T01:10:50.316Z,91.71
2022-11-14T01:13:17.689Z,91.32
2022-11-14T01:15:47.406Z,91.31
2022-11-14T01:18:17.098Z,92.31
2022-11-14T01:20:45.152Z,91.36
2022-11-14T01:23:12.080Z,92.44
2022-11-14T01:25:39.023Z,92.24
2022-11-14T01:28:06.756Z,91.70
2022-11-14T01:30:33.199Z,92.17
2022-11-14T01:32:59.622Z,91.86
2022-11-14T01:35:26.072Z,91.71
2022-11-14T01:37:52.484Z,92.49
2022-11-14T01:40:18.899Z,92.35
2022-11-14T01:43:16.355Z,92.58
2022-11-14T01:46:21.819Z,92.73
2022-11-14T01:49:08.995Z,92.94
2022-11-14T01:51:59.726Z,92.86
2022-11-14T01:54:38.193Z,92.98
2022-11-14T01:57:05.143Z,92.75
2022-11-14T01:59:34.491Z,93.01
2022-11-14T02:02:03.573Z,93.07
2022-11-14T02:04:33.078Z,92.72
2022-11-14T02:07:01.087Z,92.80
2022-11-14T02:09:28.469Z,92.74
2022-11-14T02:11:55.294Z,92.52
2022-11-14T02:14:22.008Z,92.56
2022-11-14T02:17:07.606Z,93.10
2022-11-14T02:19:54.869Z,92.26
2022-11-14T02:22:21.380Z,92.49
2022-11-14T02:24:47.799Z,93.27
2022-11-14T02:27:14.373Z,93.48
2022-11-14T02:29:40.843Z,93.32
2022-11-14T02:32:10.645Z,93.64
2022-11-14T02:34:38.210Z,92.99
2022-11-14T02:37:04.659Z,93.78
2022-11-14T02:39:31.125Z,93.01
2022-11-14T02:41:57.545Z,93.73
2022-11-14T02:44:23.940Z,93.22
2022-11-14T02:46:50.365Z,93.44
2022-11-14T02:49:16.763Z,93.24
2022-11-14T02:51:43.228Z,93.33
2022-11-14T02:54:09.643Z,93.45
2022-11-14T02:56:36.064Z,93.39
2022-11-14T02:59:02.501Z,93.60
2022-11-14T03:01:28.920Z,93.77
2022-11-14T03:03:55.404Z,92.73
2022-11-14T03:06:21.791Z,93.20
2022-11-14T03:08:48.195Z,92.87
2022-11-14T03:11:14.599Z,93.05
2022-11-14T03:13:41.017Z,93.04
2022-11-14T03:16:08.651Z,93.39
2022-11-14T03:18:35.047Z,92.78
2022-11-14T03:21:10.964Z,92.85
2022-11-14T03:23:37.391Z,93.22
2022-11-14T03:26:05.385Z,93.08
2022-11-14T03:28:32.070Z,93.09
2022-11-14T03:30:58.698Z,93.38
2022-11-14T03:33:25.128Z,93.63
2022-11-14T03:35:51.689Z,92.98
2022-11-14T03:38:18.644Z,93.25
2022-11-14T03:40:45.195Z,94.03
2022-11-14T03:43:11.619Z,93.59
2022-11-14T03:45:38.061Z,93.09
2022-11-14T03:48:07.374Z,93.35
2022-11-14T03:50:33.785Z,93.95
2022-11-14T03:53:00.176Z,93.73
2022-11-14T03:55:26.618Z,93.95
2022-11-14T03:57:53.015Z,92.80
2022-11-14T04:00:19.659Z,93.90
2022-11-14T04:02:46.096Z,93.05
2022-11-14T04:05:12.497Z,93.76
2022-11-14T04:07:38.887Z,93.40
2022-11-14T04:10:06.074Z,93.22
2022-11-14T04:12:32.508Z,92.47
2022-11-14T04:14:58.915Z,92.59
2022-11-14T04:17:25.343Z,93.62
2022-11-14T04:19:51.736Z,93.05
2022-11-14T04:22:18.226Z,93.47
2022-11-14T04:24:44.629Z,94.05
2022-11-14T04:27:11.200Z,93.83
2022-11-14T04:29:37.607Z,93.71
2022-11-14T04:32:04.275Z,93.76
2022-11-14T04:34:30.735Z,93.23
2022-11-14T04:36:57.123Z,94.13
2022-11-14T04:39:23.546Z,93.33
2022-11-14T04:41:49.940Z,93.88
2022-11-14T04:44:16.356Z,93.56
2022-11-14T04:46:42.765Z,93.35
2022-11-14T04:49:09.169Z,93.97
2022-11-14T04:51:35.575Z,93.10
2022-11-14T04:54:01.951Z,92.83
2022-11-14T04:56:28.370Z,93.91
2022-11-14T04:58:54.918Z,93.25
2022-11-14T05:01:21.372Z,93.00
2022-11-14T05:03:47.857Z,93.68
2022-11-14T05:06:14.275Z,92.89
2022-11-14T05:08:40.659Z,93.23
2022-11-14T05:11:07.118Z,92.47
2022-11-14T05:13:33.565Z,93.02
2022-11-14T05:16:00.480Z,92.51
2022-11-14T05:18:27.252Z,92.72
2022-11-14T05:20:53.845Z,93.05
2022-11-14T05:23:21.653Z,92.68
2022-11-14T05:25:48.097Z,92.97
2022-11-14T05:28:14.496Z,92.66
2022-11-14T05:30:40.941Z,92.22
2022-11-14T05:33:07.333Z,92.59
2022-11-14T05:35:33.742Z,93.25
2022-11-14T05:38:03.197Z,92.37
2022-11-14T05:40:29.665Z,92.67
2022-11-14T05:42:56.177Z,92.55
2022-11-14T05:45:22.599Z,92.74
2022-11-14T05:47:48.988Z,92.98
2022-11-14T05:50:15.474Z,92.78
2022-11-14T05:52:41.872Z,93.37
2022-11-14T05:55:08.685Z,92.84
2022-11-14T05:57:35.082Z,93.28
2022-11-14T06:00:02.151Z,93.33
2022-11-14T06:02:28.969Z,92.62
2022-11-14T06:04:55.430Z,92.25
2022-11-14T06:07:21.871Z,92.52
2022-11-14T06:09:48.303Z,93.30
2022-11-14T06:12:14.724Z,93.07
2022-11-14T06:14:41.106Z,93.02
2022-11-14T06:17:07.602Z,93.71
2022-11-14T06:19:34.181Z,92.65
2022-11-14T06:22:00.585Z,92.61
2022-11-14T06:24:27.002Z,92.63
2022-11-14T06:26:53.394Z,92.68
2022-11-14T06:29:19.814Z,93.31
2022-11-14T06:31:46.212Z,92.62
2022-11-14T06:34:12.749Z,93.18
2022-11-14T06:36:39.158Z,92.85
2022-11-14T06:39:05.569Z,92.94
2022-11-14T06:41:31.969Z,93.20
2022-11-14T06:43:58.365Z,93.17
2022-11-14T06:46:24.781Z,93.15
2022-11-14T06:48:51.216Z,93.15
2022-11-14T06:51:17.854Z,92.33
2022-11-14T06:53:44.494Z,93.10
2022-11-14T06:56:15.525Z,93.08
2022-11-14T06:58:46.491Z,93.24
2022-11-14T07:01:12.784Z,92.25
2022-11-14T07:03:39.550Z,92.50
2022-11-14T07:06:06.130Z,92.27
2022-11-14T07:08:33.019Z,92.36
2022-11-14T07:11:10.097Z,92.07
2022-11-14T07:13:36.654Z,93.20
2022-11-14T07:16:03.422Z,92.83
2022-11-14T07:18:31.102Z,93.15
2022-11-14T07:21:03.189Z,93.36
2022-11-14T07:23:30.630Z,93.31
2022-11-14T07:26:00.901Z,92.77
2022-11-14T07:28:27.456Z,93.09
2022-11-14T07:30:55.099Z,92.61
2022-11-14T07:33:21.517Z,93.26
2022-11-14T07:35:47.971Z,92.92
2022-11-14T07:38:14.379Z,93.78
2022-11-14T07:40:40.781Z,93.03
2022-11-14T07:43:07.159Z,93.09
2022-11-14T07:45:33.580Z,93.05
2022-11-14T07:48:00.810Z,93.49
2022-11-14T07:50:27.730Z,92.86
2022-11-14T07:52:54.738Z,92.91
2022-11-14T07:55:21.359Z,92.66
2022-11-14T07:57:49.380Z,92.47
2022-11-14T08:00:16.434Z,92.33
2022-11-14T08:02:42.955Z,92.62
2022-11-14T08:05:09.478Z,93.10
2022-11-14T08:07:36.069Z,92.20
2022-11-14T08:10:02.586Z,92.94
2022-11-14T08:12:29.104Z,92.60
2022-11-14T08:14:55.613Z,91.46
2022-11-14T08:17:22.380Z,91.28
2022-11-14T08:19:48.951Z,91.40
2022-11-14T08:22:15.363Z,91.03
2022-11-14T08:24:41.873Z,91.73
2022-11-14T08:27:08.333Z,91.26
2022-11-14T08:29:34.780Z,91.97
2022-11-14T08:32:01.252Z,92.01
2022-11-14T08:34:27.798Z,91.81
2022-11-14T08:36:54.253Z,92.32
2022-11-14T08:39:20.648Z,92.14
2022-11-14T08:41:47.138Z,92.04
2022-11-14T08:44:13.620Z,91.61
2022-11-14T08:46:40.067Z,92.66
2022-11-14T08:49:06.494Z,91.68
2022-11-14T08:51:32.937Z,91.64
2022-11-14T08:53:59.503Z,91.61
2022-11-14T08:56:25.906Z,92.33
2022-11-14T08:58:52.358Z,91.77
2022-11-14T09:01:18.852Z,92.39
2022-11-14T09:03:45.452Z,92.03
2022-11-14T09:06:11.960Z,91.67
2022-11-14T09:08:38.387Z,91.96
2022-11-14T09:11:06.415Z,91.93
2022-11-14T09:13:34.124Z,91.40
2022-11-14T09:16:01.034Z,90.59
2022-11-14T09:18:27.651Z,91.55
2022-11-14T09:20:59.661Z,91.02
2022-11-14T09:23:26.103Z,91.98
2022-11-14T09:25:53.008Z,91.59
2022-11-14T09:28:19.400Z,91.39
2022-11-14T09:30:45.918Z,91.25
2022-11-14T09:33:12.354Z,91.16
2022-11-14T09:35:38.815Z,91.11
2022-11-14T09:38:06.790Z,91.12
2022-11-14T09:40:57.403Z,91.21
2022-11-14T09:43:26.986Z,91.44
2022-11-14T09:45:53.473Z,90.98
2022-11-14T09:48:21.338Z,91.45
2022-11-14T09:51:15.253Z,91.18
2022-11-14T09:53:49.505Z,90.40
2022-11-14T09:56:22.185Z,90.92
2022-11-14T09:58:48.618Z,90.24
2022-11-14T10:01:46.478Z,90.78
2022-11-14T10:04:34.280Z,91.05
2022-11-14T10:07:34.906Z,91.11
2022-11-14T10:10:25.728Z,90.99
2022-11-14T10:12:55.194Z,91.22
2022-11-14T10:15:42.853Z,90.98
2022-11-14T10:18:23.291Z,90.41
2022-11-14T10:20:58.262Z,90.71
2022-11-14T10:23:36.833Z,90.85
2022-11-14T10:26:26.611Z,89.91
2022-11-14T10:29:05.014Z,90.15
2022-11-14T10:31:39.066Z,90.76
2022-11-14T10:34:07.218Z,90.10
2022-11-14T10:36:54.051Z,90.47
2022-11-14T10:39:31.968Z,90.36
2022-11-14T10:42:06.009Z,90.63
2022-11-14T10:44:37.132Z,90.41
2022-11-14T10:47:08.638Z,90.12
2022-11-14T10:49:35.360Z,89.69
2022-11-14T10:52:03.715Z,89.97
2022-11-14T10:54:51.925Z,88.91
2022-11-14T10:57:19.864Z,89.75
2022-11-14T10:59:46.279Z,89.33
2022-11-14T11:02:12.960Z,89.09
2022-11-14T11:04:40.534Z,89.05
2022-11-14T11:07:06.912Z,88.13
2022-11-14T11:09:34.639Z,88.97
2022-11-14T11:12:01.912Z,88.69
2022-11-14T11:14:28.340Z,88.57
2022-11-14T11:17:20.402Z,87.79
2022-11-14T11:19:47.161Z,87.50
2022-11-14T11:22:25.617Z,88.26
2022-11-14T11:24:52.324Z,88.36
2022-11-14T11:27:18.600Z,87.32
2022-11-14T11:29:45.015Z,86.53
2022-11-14T11:32:11.417Z,86.68
2022-11-14T11:34:37.877Z,86.21
2022-11-14T11:37:15.828Z,85.53
2022-11-14T11:39:46.344Z,85.21
2022-11-14T11:42:16.321Z,85.07
2022-11-14T11:44:47.562Z,85.41
2022-11-14T11:47:16.828Z,85.05
2022-11-14T11:49:52.940Z,85.24
2022-11-14T11:52:27.957Z,84.67
2022-11-14T11:55:03.563Z,83.92
2022-11-14T11:57:37.059Z,84.34
2022-11-14T12:00:06.018Z,84.88
2022-11-14T12:02:32.562Z,84.27
2022-11-14T12:04:59.016Z,85.00
2022-11-14T12:07:40.688Z,84.66
2022-11-14T12:10:20.489Z,83.67
2022-11-14T12:13:05.242Z,83.55
2022-11-14T12:15:40.561Z,83.51
2022-11-14T12:18:49.093Z,83.19
2022-11-14T12:21:42.636Z,82.48
2022-11-14T12:24:59.186Z,82.15
2022-11-14T12:27:52.278Z,82.37
2022-11-14T12:30:20.040Z,82.25
2022-11-14T12:32:55.379Z,82.82
2022-11-14T12:35:24.449Z,82.53
2022-11-14T12:37:55.387Z,82.80
2022-11-14T12:40:36.011Z,82.83
2022-11-14T12:43:02.689Z,83.46
2022-11-14T12:45:41.141Z,82.88
2022-11-14T12:48:25.991Z,76.71
2022-11-14T12:50:56.393Z,66.92
2022-11-14T12:53:32.105Z,59.91
2022-11-14T12:56:02.925Z,54.61
2022-11-14T12:58:54.957Z,54.88
2022-11-14T13:01:31.787Z,59.78
2022-11-14T13:04:13.460Z,64.85
2022-11-14T13:06:50.689Z,68.83
2022-11-14T13:09:32.332Z,70.90
2022-11-14T13:11:58.769Z,73.57
2022-11-14T13:14:25.189Z,73.96
2022-11-14T13:17:02.091Z,75.81
2022-11-14T13:19:28.589Z,76.47
2022-11-14T13:22:13.105Z,77.14
2022-11-14T13:25:01.480Z,78.16
2022-11-14T13:27:52.307Z,78.22
2022-11-14T13:30:15.588Z,79.09
2022-11-14T13:32:41.864Z,79.90
2022-11-14T13:35:30.762Z,79.59
2022-11-14T13:38:00.899Z,80.26
2022-11-14T13:40:55.070Z,80.18
2022-11-14T13:43:55.592Z,80.50
2022-11-14T13:46:47.499Z,81.20
2022-11-14T13:49:20.945Z,81.37
2022-11-14T13:51:47.489Z,81.23
2022-11-14T13:54:17.881Z,81.61
2022-11-14T13:57:27.083Z,80.86
2022-11-14T13:59:59.119Z,81.20
2022-11-14T14:02:28.425Z,81.67
2022-11-14T14:05:09.943Z,82.38
2022-11-14T14:07:54.651Z,81.22
2022-11-14T14:10:52.891Z,79.79
2022-11-14T14:13:53.960Z,79.12
2022-11-14T14:16:51.907Z,79.35
2022-11-14T14:19:30.323Z,79.87
2022-11-14T14:22:15.567Z,80.54
2022-11-14T14:24:57.760Z,81.26
2022-11-14T14:27:46.795Z,81.38
2022-11-14T14:30:14.646Z,81.79
2022-11-14T14:32:41.173Z,81.50
2022-11-14T14:35:38.866Z,82.61
2022-11-14T14:38:13.876Z,82.60
2022-11-14T14:40:40.905Z,83.35
2022-11-14T14:43:07.391Z,84.19
2022-11-14T14:45:48.219Z,84.49
2022-11-14T14:48:22.603Z,85.34
2022-11-14T14:50:58.873Z,85.99
2022-11-14T14:53:29.677Z,85.10
2022-11-14T14:56:03.618Z,85.72
2022-11-14T14:58:32.019Z,87.12
2022-11-14T15:01:01.531Z,87.34
2022-11-14T15:03:37.526Z,86.52
2022-11-14T15:06:05.818Z,87.68
2022-11-14T15:08:35.734Z,87.20
2022-11-14T15:11:02.199Z,87.23
2022-11-14T15:13:29.126Z,86.73
2022-11-14T15:15:55.601Z,87.32
2022-11-14T15:18:32.168Z,87.91
2022-11-14T15:21:16.165Z,87.91
2022-11-14T15:23:42.674Z,88.14
2022-11-14T15:26:14.511Z,88.58
2022-11-14T15:28:43.195Z,89.28
2022-11-14T15:31:16.501Z,88.61
2022-11-14T15:33:43.177Z,88.83
2022-11-14T15:36:11.467Z,88.73
2022-11-14T15:38:44.070Z,89.96
2022-11-14T15:41:24.398Z,89.14
2022-11-14T15:43:51.991Z,89.90
2022-11-14T15:46:35.122Z,89.65
2022-11-14T15:49:01.946Z,90.45
2022-11-14T15:52:10.518Z,90.80
2022-11-14T15:54:36.925Z,91.03
2022-11-14T15:57:13.691Z,90.49
2022-11-14T15:59:40.184Z,90.04
2022-11-14T16:02:31.764Z,91.06
2022-11-14T16:04:58.304Z,90.83
2022-11-14T16:07:26.019Z,91.21
2022-11-14T16:09:52.642Z,91.28
2022-11-14T16:12:19.221Z,91.09
2022-11-14T16:14:45.650Z,91.39
2022-11-14T16:17:15.846Z,90.89
2022-11-14T16:19:42.367Z,90.66
2022-11-14T16:22:11.827Z,91.41
2022-11-14T16:24:38.224Z,91.15
2022-11-14T16:27:04.692Z,91.06
2022-11-14T16:29:31.192Z,91.79
2022-11-14T16:31:57.666Z,90.88
2022-11-14T16:34:25.563Z,90.97
2022-11-14T16:36:59.781Z,91.26
2022-11-14T16:39:26.366Z,91.20
2022-11-14T16:41:52.893Z,92.37
2022-11-14T16:44:19.599Z,91.66
2022-11-14T16:46:46.062Z,91.31
2022-11-14T16:49:16.149Z,91.75
2022-11-14T16:51:49.020Z,92.25
2022-11-14T16:54:19.693Z,91.75
2022-11-14T16:56:46.578Z,92.50
2022-11-14T16:59:13.074Z,92.56
2022-11-14T17:01:39.541Z,92.10
2022-11-14T17:04:05.982Z,91.80
2022-11-14T17:06:32.416Z,92.95
2022-11-14T17:08:59.293Z,92.98
2022-11-14T17:11:26.009Z,92.47
2022-11-14T17:13:52.441Z,92.22
2022-11-14T17:16:18.891Z,92.42
2022-11-14T17:18:49.793Z,92.73
2022-11-14T17:21:16.204Z,93.07
2022-11-14T17:23:42.737Z,93.37
2022-11-14T17:26:09.822Z,92.81
2022-11-14T17:28:36.303Z,93.10
2022-11-14T17:31:09.957Z,92.30
2022-11-14T17:33:36.900Z,93.08
2022-11-14T17:36:07.481Z,92.19
2022-11-14T17:38:34.666Z,93.31
2022-11-14T17:41:01.105Z,92.98
2022-11-14T17:43:27.657Z,92.74
2022-11-14T17:45:57.569Z,92.85
2022-11-14T17:48:24.947Z,92.68
2022-11-14T17:50:51.556Z,93.58
2022-11-14T17:53:18.102Z,93.30
2022-11-14T17:55:44.528Z,93.44
2022-11-14T17:58:11.498Z,93.67
2022-11-14T18:00:38.136Z,93.70
2022-11-14T18:03:04.752Z,93.59
2022-11-14T18:05:34.315Z,93.15
2022-11-14T18:08:00.777Z,93.80
2022-11-14T18:10:27.189Z,93.59
2022-11-14T18:12:53.737Z,93.49
2022-11-14T18:15:25.163Z,92.81
2022-11-14T18:17:54.375Z,93.61
2022-11-14T18:20:20.767Z,93.66
2022-11-14T18:22:48.246Z,93.67
2022-11-14T18:25:14.794Z,93.85
2022-11-14T18:27:42.752Z,93.72
2022-11-14T18:30:39.278Z,92.89
2022-11-14T18:32:56.291Z,93.77
2022-11-14T18:35:22.731Z,93.98
2022-11-14T18:37:49.132Z,93.43
2022-11-14T18:40:16.825Z,93.10
2022-11-14T18:42:43.458Z,93.94
2022-11-14T18:45:09.944Z,93.41
2022-11-14T18:47:37.222Z,93.71
2022-11-14T18:50:06.347Z,94.21
2022-11-14T18:52:33.759Z,93.62
2022-11-14T18:55:00.438Z,93.55
2022-11-14T18:57:27.394Z,93.46
2022-11-14T18:59:53.974Z,93.95
2022-11-14T19:02:20.462Z,94.11
2022-11-14T19:04:48.213Z,94.12
2022-11-14T19:07:14.916Z,94.77
2022-11-14T19:09:41.534Z,93.92
2022-11-14T19:12:08.338Z,94.68
2022-11-14T19:14:35.471Z,94.62
2022-11-14T19:17:01.921Z,94.36
2022-11-14T19:19:28.413Z,94.40
2022-11-14T19:21:55.018Z,94.83
2022-11-14T19:24:21.801Z,94.81
2022-11-14T19:26:48.245Z,94.93
2022-11-14T19:29:16.413Z,94.70
2022-11-14T19:31:44.405Z,94.89
2022-11-14T19:34:10.971Z,95.24
2022-11-14T19:36:58.978Z,95.28
2022-11-14T19:39:24.010Z,94.85
2022-11-14T19:41:51.630Z,95.77
2022-11-14T19:44:18.020Z,96.01
2022-11-14T19:46:47.764Z,95.56
2022-11-14T19:49:15.369Z,95.96
2022-11-14T19:51:41.961Z,95.74
2022-11-14T19:54:09.661Z,95.26
2022-11-14T19:56:39.234Z,95.98
2022-11-14T19:59:09.738Z,95.95
2022-11-14T20:01:40.423Z,95.31
2022-11-14T20:04:06.900Z,95.99
2022-11-14T20:06:34.791Z,95.96
2022-11-14T20:09:02.652Z,96.51
2022-11-14T20:11:29.192Z,96.51
2022-11-14T20:13:56.034Z,96.34
2022-11-14T20:16:26.017Z,96.89
2022-11-14T20:18:58.862Z,96.27
2022-11-14T20:21:26.747Z,96.42
2022-11-14T20:23:53.175Z,96.30
2022-11-14T20:26:19.857Z,96.43
2022-11-14T20:28:47.034Z,96.99
2022-11-14T20:31:15.377Z,96.33
2022-11-14T20:33:43.975Z,96.62
2022-11-14T20:36:14.018Z,96.99
2022-11-14T20:38:42.788Z,97.40
2022-11-14T20:41:16.948Z,97.19
2022-11-14T20:43:43.712Z,96.81
2022-11-14T20:46:12.537Z,97.18
2022-11-14T20:48:39.129Z,97.29
2022-11-14T20:51:16.057Z,97.59
2022-11-14T20:53:42.843Z,97.57
2022-11-14T20:56:10.961Z,97.54
2022-11-14T20:58:37.733Z,97.29
2022-11-14T21:01:04.216Z,97.41
2022-11-14T21:03:31.034Z,97.85
2022-11-14T21:05:58.068Z,97.53
2022-11-14T21:08:24.497Z,97.73
2022-11-14T21:11:02.289Z,97.34
2022-11-14T21:13:29.125Z,97.38
2022-11-14T21:15:56.741Z,98.10
2022-11-14T21:18:23.435Z,97.78
2022-11-14T21:20:49.843Z,97.86
2022-11-14T21:23:16.295Z,97.76
2022-11-14T21:25:42.740Z,98.51
2022-11-14T21:28:09.185Z,98.55
2022-11-14T21:30:35.813Z,97.59
2022-11-14T21:33:02.318Z,97.95
2022-11-14T21:35:31.818Z,98.09
2022-11-14T21:37:58.345Z,98.51
2022-11-14T21:40:24.920Z,98.28
2022-11-14T21:42:51.338Z,97.67
2022-11-14T21:45:17.858Z,98.29
2022-11-14T21:47:44.260Z,98.61
2022-11-14T21:50:10.687Z,98.02
2022-11-14T21:52:37.688Z,97.85
2022-11-14T21:55:04.481Z,98.46
2022-11-14T21:57:32.285Z,98.78
2022-11-14T21:59:58.769Z,98.05
2022-11-14T22:02:25.270Z,98.50
2022-11-14T22:04:51.765Z,98.73
2022-11-14T22:07:18.292Z,98.59
2022-11-14T22:09:45.641Z,97.86
2022-11-14T22:12:12.166Z,97.54
2022-11-14T22:14:38.677Z,98.61
2022-11-14T22:17:05.166Z,97.92
2022-11-14T22:19:31.581Z,97.40
2022-11-14T22:21:57.993Z,98.22
2022-11-14T22:24:24.435Z,98.59
2022-11-14T22:26:50.866Z,97.73
2022-11-14T22:29:17.307Z,98.25
2022-11-14T22:31:43.728Z,98.02
2022-11-14T22:34:13.086Z,98.07
2022-11-14T22:36:39.531Z,98.18
2022-11-14T22:39:05.969Z,97.63
2022-11-14T22:41:33.616Z,97.54
2022-11-14T22:44:00.629Z,97.64
2022-11-14T22:46:27.119Z,97.97
2022-11-14T22:48:53.673Z,98.29
2022-11-14T22:51:21.479Z,97.93
2022-11-14T22:53:50.998Z,98.57
2022-11-14T22:56:18.771Z,98.18
2022-11-14T22:58:45.388Z,97.87
2022-11-14T23:01:12.311Z,98.16
2022-11-14T23:03:39.758Z,97.58
2022-11-14T23:06:10.905Z,97.69
2022-11-14T23:08:37.448Z,97.53
2022-11-14T23:11:08.277Z,98.31
2022-11-14T23:13:41.398Z,97.53
2022-11-14T23:16:08.802Z,98.46
2022-11-14T23:18:35.263Z,98.61
2022-11-14T23:21:18.222Z,98.53
2022-11-14T23:23:44.697Z,97.95
2022-11-14T23:26:15.776Z,98.30
2022-11-14T23:28:42.296Z,98.13
2022-11-14T23:31:09.243Z,98.08
2022-11-14T23:33:35.662Z,98.23
2022-11-14T23:36:02.143Z,98.34
2022-11-14T23:38:28.563Z,98.64
2022-11-14T23:40:59.375Z,98.04
2022-11-14T23:43:25.953Z,98.66
2022-11-14T23:45:52.395Z,98.23
2022-11-14T23:48:19.482Z,98.26
2022-11-14T23:50:49.471Z,98.25
2022-11-14T23:53:15.897Z,97.83
2022-11-14T23:55:42.316Z,98.21
2022-11-14T23:58:08.745Z,98.17
